sensor_id;sensor_type;location;lat;lon;timestamp;pressure;altitude;pressure_sealevel;temperature;humidity
53262;BME280;39658;51.090;-1.786;2022-12-29T00:01:25;98797.59;;;22.45;51.76
53262;BME280;39658;51.090;-1.786;2022-12-29T00:03:52;98789.47;;;22.45;51.61
53262;BME280;39658;51.090;-1.786;2022-12-29T00:06:20;98789.22;;;22.42;51.72
53262;BME280;39658;51.090;-1.786;2022-12-29T00:08:47;98791.66;;;22.38;51.85
53262;BME280;39658;51.090;-1.786;2022-12-29T00:11:15;98791.94;;;22.37;51.90
53262;BME280;39658;51.090;-1.786;2022-12-29T00:13:43;98798.19;;;22.32;51.84
53262;BME280;39658;51.090;-1.786;2022-12-29T00:16:28;98785.72;;;22.31;51.72
53262;BME280;39658;51.090;-1.786;2022-12-29T00:18:55;98786.00;;;22.30;51.76
53262;BME280;39658;51.090;-1.786;2022-12-29T00:21:24;98788.19;;;22.28;51.90
53262;BME280;39658;51.090;-1.786;2022-12-29T00:24:12;98780.63;;;22.25;51.98
53262;BME280;39658;51.090;-1.786;2022-12-29T00:27:03;98775.19;;;22.25;52.00
53262;BME280;39658;51.090;-1.786;2022-12-29T00:29:52;98773.28;;;22.30;51.87
53262;BME280;39658;51.090;-1.786;2022-12-29T00:32:36;98772.16;;;22.36;51.88
53262;BME280;39658;51.090;-1.786;2022-12-29T00:35:26;98776.72;;;22.41;51.67
53262;BME280;39658;51.090;-1.786;2022-12-29T00:37:57;98773.22;;;22.45;51.79
53262;BME280;39658;51.090;-1.786;2022-12-29T00:40:42;98781.56;;;22.54;51.65
53262;BME280;39658;51.090;-1.786;2022-12-29T00:43:26;98781.50;;;22.64;51.41
53262;BME280;39658;51.090;-1.786;2022-12-29T00:46:11;98779.53;;;22.75;51.31
53262;BME280;39658;51.090;-1.786;2022-12-29T00:48:37;98777.06;;;22.84;51.21
53262;BME280;39658;51.090;-1.786;2022-12-29T00:51:21;98763.47;;;22.89;50.93
53262;BME280;39658;51.090;-1.786;2022-12-29T00:53:50;98767.75;;;22.95;50.82
53262;BME280;39658;51.090;-1.786;2022-12-29T00:56:17;98775.34;;;22.98;50.69
53262;BME280;39658;51.090;-1.786;2022-12-29T00:58:43;98776.38;;;23.02;50.84
53262;BME280;39658;51.090;-1.786;2022-12-29T01:01:10;98772.28;;;23.04;50.64
53262;BME280;39658;51.090;-1.786;2022-12-29T01:03:38;98759.53;;;23.05;50.65
53262;BME280;39658;51.090;-1.786;2022-12-29T01:06:07;98757.63;;;23.05;50.79
53262;BME280;39658;51.090;-1.786;2022-12-29T01:08:34;98746.78;;;23.05;50.65
53262;BME280;39658;51.090;-1.786;2022-12-29T01:11:05;98750.59;;;23.04;50.49
53262;BME280;39658;51.090;-1.786;2022-12-29T01:13:32;98742.75;;;23.03;50.53
53262;BME280;39658;51.090;-1.786;2022-12-29T01:15:59;98739.50;;;23.01;50.69
53262;BME280;39658;51.090;-1.786;2022-12-29T01:18:26;98745.50;;;22.98;50.61
53262;BME280;39658;51.090;-1.786;2022-12-29T01:20:59;98747.97;;;22.94;50.58
53262;BME280;39658;51.090;-1.786;2022-12-29T01:23:26;98742.03;;;22.92;50.62
53262;BME280;39658;51.090;-1.786;2022-12-29T01:25:53;98740.16;;;22.88;50.63
53262;BME280;39658;51.090;-1.786;2022-12-29T01:28:21;98739.63;;;22.86;50.67
53262;BME280;39658;51.090;-1.786;2022-12-29T01:30:48;98738.81;;;22.80;50.86
53262;BME280;39658;51.090;-1.786;2022-12-29T01:33:15;98731.22;;;22.77;50.91
53262;BME280;39658;51.090;-1.786;2022-12-29T01:35:42;98733.69;;;22.73;50.82
53262;BME280;39658;51.090;-1.786;2022-12-29T01:38:08;98731.31;;;22.67;51.02
53262;BME280;39658;51.090;-1.786;2022-12-29T01:40:43;98729.44;;;22.62;51.05
53262;BME280;39658;51.090;-1.786;2022-12-29T01:43:12;98724.88;;;22.58;51.19
53262;BME280;39658;51.090;-1.786;2022-12-29T01:45:45;98733.84;;;22.53;51.36
53262;BME280;39658;51.090;-1.786;2022-12-29T01:48:15;98735.78;;;22.47;51.58
53262;BME280;39658;51.090;-1.786;2022-12-29T01:50:46;98732.84;;;22.44;51.66
53262;BME280;39658;51.090;-1.786;2022-12-29T01:53:18;98727.69;;;22.37;51.63
53262;BME280;39658;51.090;-1.786;2022-12-29T01:55:48;98723.41;;;22.31;51.67
53262;BME280;39658;51.090;-1.786;2022-12-29T01:58:18;98709.06;;;22.26;52.13
53262;BME280;39658;51.090;-1.786;2022-12-29T02:00:48;98718.03;;;22.21;52.11
53262;BME280;39658;51.090;-1.786;2022-12-29T02:03:16;98715.91;;;22.18;52.02
53262;BME280;39658;51.090;-1.786;2022-12-29T02:05:47;98715.13;;;22.12;52.01
53262;BME280;39658;51.090;-1.786;2022-12-29T02:08:16;98696.19;;;22.07;52.10
53262;BME280;39658;51.090;-1.786;2022-12-29T02:10:44;98697.84;;;22.03;52.15
53262;BME280;39658;51.090;-1.786;2022-12-29T02:13:11;98695.91;;;21.99;52.36
53262;BME280;39658;51.090;-1.786;2022-12-29T02:15:55;98681.56;;;21.93;52.47
53262;BME280;39658;51.090;-1.786;2022-12-29T02:18:30;98677.00;;;21.88;52.44
53262;BME280;39658;51.090;-1.786;2022-12-29T02:21:24;98673.22;;;21.84;52.54
53262;BME280;39658;51.090;-1.786;2022-12-29T02:24:37;98690.59;;;21.78;52.75
53262;BME280;39658;51.090;-1.786;2022-12-29T02:27:31;98679.78;;;21.73;52.77
53262;BME280;39658;51.090;-1.786;2022-12-29T02:30:15;98678.72;;;21.69;52.80
53262;BME280;39658;51.090;-1.786;2022-12-29T02:32:50;98667.91;;;21.64;53.00
53262;BME280;39658;51.090;-1.786;2022-12-29T02:35:25;98672.22;;;21.60;52.87
53262;BME280;39658;51.090;-1.786;2022-12-29T02:38:00;98678.19;;;21.57;53.11
53262;BME280;39658;51.090;-1.786;2022-12-29T02:40:37;98693.63;;;21.56;52.94
53262;BME280;39658;51.090;-1.786;2022-12-29T02:43:17;98678.47;;;21.55;52.95
53262;BME280;39658;51.090;-1.786;2022-12-29T02:45:53;98658.19;;;21.53;52.99
53262;BME280;39658;51.090;-1.786;2022-12-29T02:48:27;98646.81;;;21.51;52.93
53262;BME280;39658;51.090;-1.786;2022-12-29T02:51:00;98664.44;;;21.48;52.96
53262;BME280;39658;51.090;-1.786;2022-12-29T02:53:29;98668.22;;;21.47;53.08
53262;BME280;39658;51.090;-1.786;2022-12-29T02:56:14;98675.28;;;21.43;52.98
53262;BME280;39658;51.090;-1.786;2022-12-29T02:58:41;98687.47;;;21.41;53.00
53262;BME280;39658;51.090;-1.786;2022-12-29T03:01:22;98685.84;;;21.40;53.17
53262;BME280;39658;51.090;-1.786;2022-12-29T03:04:10;98680.97;;;21.37;53.13
53262;BME280;39658;51.090;-1.786;2022-12-29T03:06:52;98700.47;;;21.34;53.18
53262;BME280;39658;51.090;-1.786;2022-12-29T03:09:31;98706.44;;;21.31;53.23
53262;BME280;39658;51.090;-1.786;2022-12-29T03:12:09;98709.41;;;21.29;53.07
53262;BME280;39658;51.090;-1.786;2022-12-29T03:14:48;98705.34;;;21.26;53.11
53262;BME280;39658;51.090;-1.786;2022-12-29T03:17:43;98729.97;;;21.25;53.18
53262;BME280;39658;51.090;-1.786;2022-12-29T03:20:19;98731.56;;;21.21;53.17
53262;BME280;39658;51.090;-1.786;2022-12-29T03:22:51;98720.47;;;21.17;53.24
53262;BME280;39658;51.090;-1.786;2022-12-29T03:25:24;98724.53;;;21.15;53.09
53262;BME280;39658;51.090;-1.786;2022-12-29T03:27:55;98734.00;;;21.12;53.31
53262;BME280;39658;51.090;-1.786;2022-12-29T03:30:23;98740.50;;;21.11;53.45
53262;BME280;39658;51.090;-1.786;2022-12-29T03:32:53;98755.09;;;21.10;53.44
53262;BME280;39658;51.090;-1.786;2022-12-29T03:35:25;98759.16;;;21.08;53.33
53262;BME280;39658;51.090;-1.786;2022-12-29T03:37:55;98754.03;;;21.06;53.42
53262;BME280;39658;51.090;-1.786;2022-12-29T03:40:26;98754.56;;;21.03;53.38
53262;BME280;39658;51.090;-1.786;2022-12-29T03:42:55;98762.13;;;21.01;53.41
53262;BME280;39658;51.090;-1.786;2022-12-29T03:45:22;98752.41;;;21.00;53.43
53262;BME280;39658;51.090;-1.786;2022-12-29T03:47:49;98769.97;;;20.98;53.57
53262;BME280;39658;51.090;-1.786;2022-12-29T03:50:16;98765.91;;;20.95;53.42
53262;BME280;39658;51.090;-1.786;2022-12-29T03:52:44;98773.50;;;20.93;53.47
53262;BME280;39658;51.090;-1.786;2022-12-29T03:55:11;98780.78;;;20.92;53.44
53262;BME280;39658;51.090;-1.786;2022-12-29T03:57:38;98782.97;;;20.90;53.42
53262;BME280;39658;51.090;-1.786;2022-12-29T04:00:06;98786.19;;;20.87;53.46
53262;BME280;39658;51.090;-1.786;2022-12-29T04:02:33;98790.78;;;20.87;53.50
53262;BME280;39658;51.090;-1.786;2022-12-29T04:05:00;98785.66;;;20.85;53.37
53262;BME280;39658;51.090;-1.786;2022-12-29T04:07:27;98788.63;;;20.84;53.63
53262;BME280;39658;51.090;-1.786;2022-12-29T04:09:55;98798.91;;;20.82;53.41
53262;BME280;39658;51.090;-1.786;2022-12-29T04:12:22;98804.56;;;20.80;53.57
53262;BME280;39658;51.090;-1.786;2022-12-29T04:14:48;98810.22;;;20.79;53.64
53262;BME280;39658;51.090;-1.786;2022-12-29T04:17:15;98821.56;;;20.76;53.64
53262;BME280;39658;51.090;-1.786;2022-12-29T04:19:42;98821.56;;;20.76;53.48
53262;BME280;39658;51.090;-1.786;2022-12-29T04:22:09;98828.31;;;20.73;53.49
53262;BME280;39658;51.090;-1.786;2022-12-29T04:24:37;98842.91;;;20.72;53.69
53262;BME280;39658;51.090;-1.786;2022-12-29T04:27:05;98852.38;;;20.70;53.68
53262;BME280;39658;51.090;-1.786;2022-12-29T04:29:31;98865.09;;;20.69;53.04
53262;BME280;39658;51.090;-1.786;2022-12-29T04:31:58;98860.75;;;20.68;53.72
53262;BME280;39658;51.090;-1.786;2022-12-29T04:34:25;98860.22;;;20.66;53.48
53262;BME280;39658;51.090;-1.786;2022-12-29T04:36:52;98870.47;;;20.64;53.50
53262;BME280;39658;51.090;-1.786;2022-12-29T04:39:19;98883.44;;;20.62;53.62
53262;BME280;39658;51.090;-1.786;2022-12-29T04:41:45;98890.75;;;20.61;53.59
53262;BME280;39658;51.090;-1.786;2022-12-29T04:44:14;98893.69;;;20.60;53.65
53262;BME280;39658;51.090;-1.786;2022-12-29T04:46:41;98907.47;;;20.58;53.49
53262;BME280;39658;51.090;-1.786;2022-12-29T04:49:07;98917.47;;;20.58;53.67
53262;BME280;39658;51.090;-1.786;2022-12-29T04:51:34;98920.44;;;20.56;53.50
53262;BME280;39658;51.090;-1.786;2022-12-29T04:54:01;98922.59;;;20.54;53.58
53262;BME280;39658;51.090;-1.786;2022-12-29T04:56:28;98940.16;;;20.52;53.70
53262;BME280;39658;51.090;-1.786;2022-12-29T04:58:55;98947.44;;;20.51;53.57
53262;BME280;39658;51.090;-1.786;2022-12-29T05:01:23;98963.13;;;20.49;53.62
53262;BME280;39658;51.090;-1.786;2022-12-29T05:03:50;98966.91;;;20.48;53.52
53262;BME280;39658;51.090;-1.786;2022-12-29T05:06:17;98963.63;;;20.46;53.74
53262;BME280;39658;51.090;-1.786;2022-12-29T05:08:44;98981.19;;;20.44;53.57
53262;BME280;39658;51.090;-1.786;2022-12-29T05:11:11;98991.19;;;20.43;53.57
53262;BME280;39658;51.090;-1.786;2022-12-29T05:13:38;98991.44;;;20.42;53.79
53262;BME280;39658;51.090;-1.786;2022-12-29T05:16:05;99004.38;;;20.40;53.62
53262;BME280;39658;51.090;-1.786;2022-12-29T05:18:33;99009.19;;;20.38;53.56
53262;BME280;39658;51.090;-1.786;2022-12-29T05:21:00;99014.84;;;20.36;53.66
53262;BME280;39658;51.090;-1.786;2022-12-29T05:23:27;99031.31;;;20.34;53.70
53262;BME280;39658;51.090;-1.786;2022-12-29T05:25:54;99029.69;;;20.33;53.71
53262;BME280;39658;51.090;-1.786;2022-12-29T05:28:20;99029.16;;;20.31;53.73
53262;BME280;39658;51.090;-1.786;2022-12-29T05:30:48;99041.28;;;20.29;53.77
53262;BME280;39658;51.090;-1.786;2022-12-29T05:33:15;99044.81;;;20.29;53.70
53262;BME280;39658;51.090;-1.786;2022-12-29T05:35:44;99053.41;;;20.26;53.70
53262;BME280;39658;51.090;-1.786;2022-12-29T05:38:11;99054.75;;;20.24;53.76
53262;BME280;39658;51.090;-1.786;2022-12-29T05:40:38;99057.72;;;20.22;53.99
53262;BME280;39658;51.090;-1.786;2022-12-29T05:43:05;99064.44;;;20.20;53.83
53262;BME280;39658;51.090;-1.786;2022-12-29T05:45:31;99079.84;;;20.19;53.90
53262;BME280;39658;51.090;-1.786;2022-12-29T05:47:58;99096.56;;;20.16;53.78
53262;BME280;39658;51.090;-1.786;2022-12-29T05:50:25;99104.91;;;20.15;53.71
53262;BME280;39658;51.090;-1.786;2022-12-29T05:52:53;99110.84;;;20.12;53.84
53262;BME280;39658;51.090;-1.786;2022-12-29T05:55:20;99118.13;;;20.11;53.89
53262;BME280;39658;51.090;-1.786;2022-12-29T05:57:47;99121.09;;;20.10;53.61
53262;BME280;39658;51.090;-1.786;2022-12-29T06:00:14;99138.63;;;20.07;53.99
53262;BME280;39658;51.090;-1.786;2022-12-29T06:02:41;99141.31;;;20.07;54.04
53262;BME280;39658;51.090;-1.786;2022-12-29T06:05:08;99142.91;;;20.03;53.78
53262;BME280;39658;51.090;-1.786;2022-12-29T06:07:35;99146.06;;;20.00;53.81
53262;BME280;39658;51.090;-1.786;2022-12-29T06:10:04;99151.72;;;19.98;54.20
53262;BME280;39658;51.090;-1.786;2022-12-29T06:12:31;99155.25;;;19.99;54.06
53262;BME280;39658;51.090;-1.786;2022-12-29T06:14:58;99164.75;;;20.01;54.19
53262;BME280;39658;51.090;-1.786;2022-12-29T06:17:24;99174.53;;;20.08;53.96
53262;BME280;39658;51.090;-1.786;2022-12-29T06:19:51;99173.78;;;20.12;53.63
53262;BME280;39658;51.090;-1.786;2022-12-29T06:22:18;99183.03;;;20.21;53.57
53262;BME280;39658;51.090;-1.786;2022-12-29T06:24:45;99179.63;;;20.31;53.46
53262;BME280;39658;51.090;-1.786;2022-12-29T06:27:13;99186.44;;;20.39;53.19
53262;BME280;39658;51.090;-1.786;2022-12-29T06:29:41;99206.31;;;20.49;53.28
53262;BME280;39658;51.090;-1.786;2022-12-29T06:32:08;99201.25;;;20.58;52.88
53262;BME280;39658;51.090;-1.786;2022-12-29T06:34:35;99202.16;;;20.69;52.95
53262;BME280;39658;51.090;-1.786;2022-12-29T06:37:02;99205.50;;;20.81;52.60
53262;BME280;39658;51.090;-1.786;2022-12-29T06:39:29;99207.78;;;20.94;52.24
53262;BME280;39658;51.090;-1.786;2022-12-29T06:41:56;99213.56;;;21.08;52.05
53262;BME280;39658;51.090;-1.786;2022-12-29T06:44:24;99209.56;;;21.20;51.87
53262;BME280;39658;51.090;-1.786;2022-12-29T06:46:51;99211.06;;;21.33;51.53
53262;BME280;39658;51.090;-1.786;2022-12-29T06:49:18;99209.78;;;21.46;51.32
53262;BME280;39658;51.090;-1.786;2022-12-29T06:51:45;99221.19;;;21.58;51.19
53262;BME280;39658;51.090;-1.786;2022-12-29T06:54:12;99225.59;;;21.69;50.98
53262;BME280;39658;51.090;-1.786;2022-12-29T06:56:38;99228.09;;;21.81;50.79
53262;BME280;39658;51.090;-1.786;2022-12-29T06:59:05;99230.03;;;21.90;50.46
53262;BME280;39658;51.090;-1.786;2022-12-29T07:01:33;99227.88;;;21.98;50.74
53262;BME280;39658;51.090;-1.786;2022-12-29T07:04:01;99232.84;;;22.06;50.27
53262;BME280;39658;51.090;-1.786;2022-12-29T07:06:28;99227.16;;;22.12;50.26
53262;BME280;39658;51.090;-1.786;2022-12-29T07:08:54;99226.91;;;22.19;50.28
53262;BME280;39658;51.090;-1.786;2022-12-29T07:11:22;99235.31;;;22.23;50.01
53262;BME280;39658;51.090;-1.786;2022-12-29T07:13:49;99243.19;;;22.24;50.15
53262;BME280;39658;51.090;-1.786;2022-12-29T07:16:16;99238.31;;;22.26;49.93
53262;BME280;39658;51.090;-1.786;2022-12-29T07:18:45;99238.31;;;22.26;49.92
53262;BME280;39658;51.090;-1.786;2022-12-29T07:21:11;99237.50;;;22.26;49.93
53262;BME280;39658;51.090;-1.786;2022-12-29T07:23:38;99240.19;;;22.26;49.92
53262;BME280;39658;51.090;-1.786;2022-12-29T07:26:06;99242.91;;;22.26;49.90
53262;BME280;39658;51.090;-1.786;2022-12-29T07:28:34;99250.22;;;22.25;49.88
53262;BME280;39658;51.090;-1.786;2022-12-29T07:31:01;99251.56;;;22.23;49.87
53262;BME280;39658;51.090;-1.786;2022-12-29T07:33:28;99253.75;;;22.20;49.95
53262;BME280;39658;51.090;-1.786;2022-12-29T07:35:56;99253.19;;;22.18;49.94
53262;BME280;39658;51.090;-1.786;2022-12-29T07:38:24;99272.69;;;22.15;49.99
53262;BME280;39658;51.090;-1.786;2022-12-29T07:40:50;99274.03;;;22.13;50.08
53262;BME280;39658;51.090;-1.786;2022-12-29T07:43:17;99274.56;;;22.10;50.07
53262;BME280;39658;51.090;-1.786;2022-12-29T07:45:44;99283.78;;;22.09;50.19
53262;BME280;39658;51.090;-1.786;2022-12-29T07:48:10;99287.84;;;22.06;50.16
53262;BME280;39658;51.090;-1.786;2022-12-29T07:50:37;99284.81;;;22.03;50.24
53262;BME280;39658;51.090;-1.786;2022-12-29T07:53:05;99296.41;;;21.98;50.23
53262;BME280;39658;51.090;-1.786;2022-12-29T07:55:32;99300.47;;;21.96;50.37
53262;BME280;39658;51.090;-1.786;2022-12-29T07:57:59;99299.66;;;21.95;50.24
53262;BME280;39658;51.090;-1.786;2022-12-29T08:00:26;99304.81;;;21.97;50.51
53262;BME280;39658;51.090;-1.786;2022-12-29T08:02:53;99309.13;;;21.98;50.27
53262;BME280;39658;51.090;-1.786;2022-12-29T08:05:20;99317.25;;;21.98;50.42
53262;BME280;39658;51.090;-1.786;2022-12-29T08:07:47;99321.88;;;21.97;50.29
53262;BME280;39658;51.090;-1.786;2022-12-29T08:10:15;99326.47;;;21.97;50.36
53262;BME280;39658;51.090;-1.786;2022-12-29T08:12:43;99331.88;;;21.97;50.32
53262;BME280;39658;51.090;-1.786;2022-12-29T08:15:11;99338.13;;;21.97;50.49
53262;BME280;39658;51.090;-1.786;2022-12-29T08:17:38;99352.22;;;21.99;50.30
53262;BME280;39658;51.090;-1.786;2022-12-29T08:20:06;99350.66;;;22.03;50.53
53262;BME280;39658;51.090;-1.786;2022-12-29T08:22:33;99349.06;;;22.07;50.40
53262;BME280;39658;51.090;-1.786;2022-12-29T08:25:00;99354.78;;;22.11;50.34
53262;BME280;39658;51.090;-1.786;2022-12-29T08:27:28;99367.81;;;22.19;50.16
53262;BME280;39658;51.090;-1.786;2022-12-29T08:29:55;99364.59;;;22.27;50.19
53262;BME280;39658;51.090;-1.786;2022-12-29T08:32:21;99373.56;;;22.33;49.98
53262;BME280;39658;51.090;-1.786;2022-12-29T08:34:48;99368.41;;;22.36;49.95
53262;BME280;39658;51.090;-1.786;2022-12-29T08:37:15;99378.47;;;22.41;49.99
53262;BME280;39658;51.090;-1.786;2022-12-29T08:39:42;99381.22;;;22.46;49.72
53262;BME280;39658;51.090;-1.786;2022-12-29T08:42:09;99393.16;;;22.50;49.70
53262;BME280;39658;51.090;-1.786;2022-12-29T08:44:37;99393.44;;;22.54;49.54
53262;BME280;39658;51.090;-1.786;2022-12-29T08:47:05;99406.22;;;22.58;49.63
53262;BME280;39658;51.090;-1.786;2022-12-29T08:49:32;99401.59;;;22.59;49.33
53262;BME280;39658;51.090;-1.786;2022-12-29T08:51:59;99413.25;;;22.59;49.48
53262;BME280;39658;51.090;-1.786;2022-12-29T08:54:26;99410.56;;;22.59;49.48
53262;BME280;39658;51.090;-1.786;2022-12-29T08:56:53;99409.75;;;22.59;49.63
53262;BME280;39658;51.090;-1.786;2022-12-29T08:59:20;99418.13;;;22.57;49.50
53262;BME280;39658;51.090;-1.786;2022-12-29T09:01:48;99431.69;;;22.52;49.72
53262;BME280;39658;51.090;-1.786;2022-12-29T09:04:15;99425.16;;;22.48;49.67
53262;BME280;39658;51.090;-1.786;2022-12-29T09:06:42;99431.91;;;22.45;49.90
53262;BME280;39658;51.090;-1.786;2022-12-29T09:09:09;99428.94;;;22.42;49.90
53262;BME280;39658;51.090;-1.786;2022-12-29T09:11:36;99430.50;;;22.38;49.99
53262;BME280;39658;51.090;-1.786;2022-12-29T09:14:03;99432.94;;;22.34;49.85
53262;BME280;39658;51.090;-1.786;2022-12-29T09:16:30;99452.69;;;22.30;49.99
53262;BME280;39658;51.090;-1.786;2022-12-29T09:18:58;99450.50;;;22.27;50.07
53262;BME280;39658;51.090;-1.786;2022-12-29T09:21:25;99460.25;;;22.23;50.13
53262;BME280;39658;51.090;-1.786;2022-12-29T09:23:51;99463.75;;;22.23;50.16
53262;BME280;39658;51.090;-1.786;2022-12-29T09:26:18;99464.28;;;22.20;50.22
53262;BME280;39658;51.090;-1.786;2022-12-29T09:28:45;99470.50;;;22.15;50.22
53262;BME280;39658;51.090;-1.786;2022-12-29T09:31:12;99478.03;;;22.08;50.24
53262;BME280;39658;51.090;-1.786;2022-12-29T09:33:39;99474.50;;;22.08;50.24
53262;BME280;39658;51.090;-1.786;2022-12-29T09:36:08;99468.16;;;22.34;49.84
53262;BME280;39658;51.090;-1.786;2022-12-29T09:38:35;99474.16;;;22.84;48.72
53262;BME280;39658;51.090;-1.786;2022-12-29T09:41:10;99476.06;;;22.88;48.33
53262;BME280;39658;51.090;-1.786;2022-12-29T09:43:51;99481.09;;;22.69;48.79
53262;BME280;39658;51.090;-1.786;2022-12-29T09:46:24;99481.78;;;22.44;49.27
53262;BME280;39658;51.090;-1.786;2022-12-29T09:48:59;99483.28;;;22.25;49.88
53262;BME280;39658;51.090;-1.786;2022-12-29T09:51:31;99482.38;;;22.09;49.96
53262;BME280;39658;51.090;-1.786;2022-12-29T09:54:04;99487.91;;;21.98;50.42
53262;BME280;39658;51.090;-1.786;2022-12-29T09:56:41;99490.34;;;21.94;50.41
53262;BME280;39658;51.090;-1.786;2022-12-29T09:59:12;99495.22;;;21.97;50.46
53262;BME280;39658;51.090;-1.786;2022-12-29T10:01:45;99502.38;;;22.03;50.28
53262;BME280;39658;51.090;-1.786;2022-12-29T10:04:14;99508.03;;;22.02;50.22
53262;BME280;39658;51.090;-1.786;2022-12-29T10:06:46;99494.25;;;22.03;50.13
53262;BME280;39658;51.090;-1.786;2022-12-29T10:09:22;99503.06;;;21.94;50.40
53262;BME280;39658;51.090;-1.786;2022-12-29T10:12:03;99498.66;;;21.82;50.55
53262;BME280;39658;51.090;-1.786;2022-12-29T10:14:43;99506.69;;;21.72;50.60
53262;BME280;39658;51.090;-1.786;2022-12-29T10:17:25;99519.72;;;21.75;50.76
53262;BME280;39658;51.090;-1.786;2022-12-29T10:20:07;99528.19;;;21.84;50.43
53262;BME280;39658;51.090;-1.786;2022-12-29T10:22:51;99550.41;;;21.86;50.44
53262;BME280;39658;51.090;-1.786;2022-12-29T10:25:26;99562.72;;;21.72;50.59
53262;BME280;39658;51.090;-1.786;2022-12-29T10:27:57;99555.00;;;21.58;50.91
53262;BME280;39658;51.090;-1.786;2022-12-29T10:30:25;99544.88;;;21.49;51.20
53262;BME280;39658;51.090;-1.786;2022-12-29T10:32:54;99544.00;;;21.43;51.30
53262;BME280;39658;51.090;-1.786;2022-12-29T10:35:24;99543.72;;;21.40;51.43
53262;BME280;39658;51.090;-1.786;2022-12-29T10:37:58;99549.88;;;21.35;51.39
53262;BME280;39658;51.090;-1.786;2022-12-29T10:40:29;99550.66;;;21.31;51.29
53262;BME280;39658;51.090;-1.786;2022-12-29T10:43:00;99560.34;;;21.26;51.59
53262;BME280;39658;51.090;-1.786;2022-12-29T10:45:30;99550.84;;;21.24;51.69
53262;BME280;39658;51.090;-1.786;2022-12-29T10:48:01;99557.31;;;21.23;51.64
53262;BME280;39658;51.090;-1.786;2022-12-29T10:50:28;99554.84;;;21.21;51.55
53262;BME280;39658;51.090;-1.786;2022-12-29T10:52:59;99548.03;;;21.19;51.64
53262;BME280;39658;51.090;-1.786;2022-12-29T10:55:30;99566.41;;;21.17;51.62
53262;BME280;39658;51.090;-1.786;2022-12-29T10:58:02;99563.94;;;21.15;51.72
53262;BME280;39658;51.090;-1.786;2022-12-29T11:00:31;99573.63;;;21.11;51.72
53262;BME280;39658;51.090;-1.786;2022-12-29T11:03:12;99575.47;;;21.06;51.87
53262;BME280;39658;51.090;-1.786;2022-12-29T11:05:46;99565.16;;;21.03;52.23
53262;BME280;39658;51.090;-1.786;2022-12-29T11:08:20;99571.88;;;21.00;51.89
53262;BME280;39658;51.090;-1.786;2022-12-29T11:10:58;99564.25;;;20.97;52.01
53262;BME280;39658;51.090;-1.786;2022-12-29T11:13:27;99568.59;;;20.98;51.94
53262;BME280;39658;51.090;-1.786;2022-12-29T11:15:54;99565.91;;;20.98;52.08
53262;BME280;39658;51.090;-1.786;2022-12-29T11:18:23;99561.81;;;20.95;51.95
53262;BME280;39658;51.090;-1.786;2022-12-29T11:20:52;99565.84;;;20.93;52.13
53262;BME280;39658;51.090;-1.786;2022-12-29T11:23:30;99573.13;;;20.92;52.02
53262;BME280;39658;51.090;-1.786;2022-12-29T11:26:16;99567.97;;;20.91;52.10
53262;BME280;39658;51.090;-1.786;2022-12-29T11:28:45;99562.00;;;20.89;52.08
53262;BME280;39658;51.090;-1.786;2022-12-29T11:31:16;99573.06;;;20.87;52.11
53262;BME280;39658;51.090;-1.786;2022-12-29T11:33:43;99568.72;;;20.86;52.24
53262;BME280;39658;51.090;-1.786;2022-12-29T11:36:13;99576.28;;;20.84;52.18
53262;BME280;39658;51.090;-1.786;2022-12-29T11:38:46;99570.50;;;20.81;52.14
53262;BME280;39658;51.090;-1.786;2022-12-29T11:41:24;99591.56;;;20.79;52.12
53262;BME280;39658;51.090;-1.786;2022-12-29T11:43:52;99581.81;;;20.78;52.13
53262;BME280;39658;51.090;-1.786;2022-12-29T11:46:22;99576.91;;;20.75;52.37
53262;BME280;39658;51.090;-1.786;2022-12-29T11:48:50;99577.16;;;20.73;52.20
53262;BME280;39658;51.090;-1.786;2022-12-29T11:51:24;99578.50;;;20.71;52.27
53262;BME280;39658;51.090;-1.786;2022-12-29T11:53:56;99584.16;;;20.69;52.23
53262;BME280;39658;51.090;-1.786;2022-12-29T11:56:34;99584.97;;;20.70;52.28
53262;BME280;39658;51.090;-1.786;2022-12-29T12:02:15;99589.22;;;20.65;52.21
53262;BME280;39658;51.090;-1.786;2022-12-29T12:04:49;99587.84;;;20.63;52.29
53262;BME280;39658;51.090;-1.786;2022-12-29T12:07:22;99594.31;;;20.62;52.37
53262;BME280;39658;51.090;-1.786;2022-12-29T12:09:57;99591.88;;;20.60;52.42
53262;BME280;39658;51.090;-1.786;2022-12-29T12:12:28;99598.09;;;20.61;52.39
53262;BME280;39658;51.090;-1.786;2022-12-29T12:14:58;99602.69;;;20.60;52.38
53262;BME280;39658;51.090;-1.786;2022-12-29T12:17:28;99605.06;;;20.57;52.32
53262;BME280;39658;51.090;-1.786;2022-12-29T12:20:07;99598.25;;;20.54;52.44
53262;BME280;39658;51.090;-1.786;2022-12-29T12:22:43;99596.63;;;20.53;52.40
53262;BME280;39658;51.090;-1.786;2022-12-29T12:25:18;99604.16;;;20.51;52.38
53262;BME280;39658;51.090;-1.786;2022-12-29T12:27:50;99604.97;;;20.52;52.37
53262;BME280;39658;51.090;-1.786;2022-12-29T12:30:20;99598.19;;;20.49;52.35
53262;BME280;39658;51.090;-1.786;2022-12-29T12:32:52;99602.78;;;20.49;52.46
53262;BME280;39658;51.090;-1.786;2022-12-29T12:35:26;99609.50;;;20.46;52.40
53262;BME280;39658;51.090;-1.786;2022-12-29T12:38:08;99614.31;;;20.44;52.43
53262;BME280;39658;51.090;-1.786;2022-12-29T12:40:50;99605.66;;;20.42;52.29
53262;BME280;39658;51.090;-1.786;2022-12-29T12:43:37;99604.81;;;20.42;52.45
53262;BME280;39658;51.090;-1.786;2022-12-29T12:49:23;99596.59;;;20.37;52.40
53262;BME280;39658;51.090;-1.786;2022-12-29T12:52:01;99593.31;;;20.34;52.44
53262;BME280;39658;51.090;-1.786;2022-12-29T12:54:44;99598.13;;;20.32;52.42
53262;BME280;39658;51.090;-1.786;2022-12-29T12:57:21;99598.38;;;20.31;52.46
53262;BME280;39658;51.090;-1.786;2022-12-29T12:59:58;99595.69;;;20.31;52.40
53262;BME280;39658;51.090;-1.786;2022-12-29T13:02:36;99600.25;;;20.30;52.42
53262;BME280;39658;51.090;-1.786;2022-12-29T13:05:31;99604.03;;;20.29;52.44
53262;BME280;39658;51.090;-1.786;2022-12-29T13:08:25;99604.53;;;20.26;52.42
53262;BME280;39658;51.090;-1.786;2022-12-29T13:11:02;99612.88;;;20.25;52.45
53262;BME280;39658;51.090;-1.786;2022-12-29T13:13:55;99613.13;;;20.23;52.45
53262;BME280;39658;51.090;-1.786;2022-12-29T13:16:31;99607.97;;;20.22;52.57